Time;durP1;ratioP1;P1;durP2;ratioP2;P2;SDS_P1;SDS_P2;PMS_P1;PMS_P2;Temp;Humidity;BMP_temperature;BMP_pressure;BME280_temperature;BME280_humidity;BME280_pressure;Samples;Min_cycle;Max_cycle;Signal;HPM_P1;HPM_P2
2022/03/20 00:02:21;;;;;;;89.78;40.03;;;;;;;0.43;38.75;102882.84;5017795;28;20045;-69
2022/03/20 00:04:47;;;;;;;79.70;39.47;;;;;;;0.36;38.70;102883.63;5021097;28;20527;-66
2022/03/20 00:07:16;;;;;;;81.13;37.47;;;;;;;0.32;38.95;102887.03;5020208;28;20084;-69
2022/03/20 00:09:44;;;;;;;71.82;34.58;;;;;;;0.25;38.76;102886.09;5019610;28;20200;-69
2022/03/20 00:12:11;;;;;;;80.82;38.10;;;;;;;0.20;38.75;102879.97;5058363;28;20046;-67
2022/03/20 00:14:38;;;;;;;63.90;32.40;;;;;;;0.15;38.99;102877.31;5082885;28;20048;-68
2022/03/20 00:17:05;;;;;;;65.43;34.35;;;;;;;0.09;38.78;102879.84;5083299;28;20138;-68
2022/03/20 00:19:34;;;;;;;65.68;31.05;;;;;;;-0.02;39.28;102877.09;5084418;28;20074;-71
2022/03/20 00:22:01;;;;;;;55.58;26.80;;;;;;;-0.06;39.12;102874.41;5083268;28;20079;-67
2022/03/20 00:24:31;;;;;;;44.50;26.15;;;;;;;-0.09;39.14;102874.38;5084007;28;20046;-69
2022/03/20 00:26:58;;;;;;;51.42;26.08;;;;;;;-0.11;39.26;102876.06;5084727;28;20036;-67
2022/03/20 00:29:25;;;;;;;48.72;25.90;;;;;;;-0.10;39.27;102877.84;5082795;28;20048;-68
2022/03/20 00:31:53;;;;;;;56.13;27.52;;;;;;;-0.09;39.37;102879.56;5081473;28;20665;-69
2022/03/20 00:34:20;;;;;;;38.60;22.52;;;;;;;-0.05;39.42;102881.38;5081905;28;20062;-67
2022/03/20 00:36:47;;;;;;;41.35;21.67;;;;;;;0.05;39.34;102875.44;5095259;28;20048;-73
2022/03/20 00:39:14;;;;;;;46.10;26.30;;;;;;;0.12;39.04;102879.84;5094862;28;20135;-71
2022/03/20 00:41:42;;;;;;;38.17;20.77;;;;;;;0.13;39.13;102879.03;5092506;28;20120;-71
2022/03/20 00:44:09;;;;;;;46.13;22.92;;;;;;;0.09;39.09;102874.66;5100792;28;20467;-71
2022/03/20 00:46:36;;;;;;;40.20;20.02;;;;;;;0.07;38.93;102878.06;5101588;28;20503;-68
2022/03/20 00:49:05;;;;;;;44.70;20.67;;;;;;;0.06;39.25;102876.34;5101713;28;20035;-71
2022/03/20 00:51:32;;;;;;;41.22;19.35;;;;;;;0.08;39.14;102877.22;5102338;28;20048;-70
2022/03/20 00:53:59;;;;;;;41.20;19.95;;;;;;;0.08;39.08;102878.09;5095023;28;20123;-67
2022/03/20 00:56:27;;;;;;;46.65;21.25;;;;;;;0.12;38.61;102885.06;5095412;28;20083;-67
2022/03/20 00:58:58;;;;;;;40.92;19.50;;;;;;;0.26;38.96;102877.44;5103184;27;20044;-69
2022/03/20 01:01:26;;;;;;;34.88;16.08;;;;;;;0.45;38.39;102870.75;5106497;28;20054;-69
2022/03/20 01:03:53;;;;;;;30.70;16.02;;;;;;;0.61;38.35;102868.31;5107971;28;20486;-69
2022/03/20 01:06:22;;;;;;;24.20;12.25;;;;;;;0.78;38.39;102871.97;5097041;28;20123;-72
2022/03/20 01:08:50;;;;;;;22.52;10.57;;;;;;;1.03;37.89;102862.69;5087710;28;20052;-70
2022/03/20 01:11:18;;;;;;;31.60;14.55;;;;;;;1.24;37.79;102869.81;5088468;28;20386;-71
2022/03/20 01:13:45;;;;;;;31.38;15.45;;;;;;;1.39;37.60;102868.16;5087126;28;20044;-69
2022/03/20 01:16:14;;;;;;;31.23;16.50;;;;;;;1.54;37.53;102863.09;5087985;28;20052;-68
2022/03/20 01:18:40;;;;;;;21.92;13.98;;;;;;;1.65;37.53;102861.41;5088005;28;20387;-70
2022/03/20 01:21:08;;;;;;;28.80;16.60;;;;;;;1.70;37.14;102864.06;5087870;28;20050;-69
2022/03/20 01:23:35;;;;;;;38.35;15.43;;;;;;;1.75;37.05;102858.88;5087962;28;20055;-68
2022/03/20 01:26:02;;;;;;;35.58;14.80;;;;;;;1.81;37.07;102862.38;5087324;28;20143;-71
2022/03/20 01:28:28;;;;;;;38.85;16.27;;;;;;;1.86;37.07;102862.44;5087919;28;20048;-68
2022/03/20 01:30:55;;;;;;;37.58;17.67;;;;;;;1.87;36.97;102861.53;5086197;28;20226;-68
2022/03/20 01:33:25;;;;;;;38.30;18.40;;;;;;;1.86;37.18;102857.22;5088485;28;20361;-70
2022/03/20 01:35:53;;;;;;;43.08;18.05;;;;;;;1.84;37.31;102859.81;5087462;28;20369;-68
2022/03/20 01:38:20;;;;;;;39.08;17.00;;;;;;;1.86;37.10;102867.63;5087816;28;20150;-67
2022/03/20 01:40:48;;;;;;;32.83;15.75;;;;;;;1.85;37.32;102858.06;5100126;28;20051;-74
2022/03/20 01:43:15;;;;;;;35.83;17.65;;;;;;;1.85;37.16;102860.66;5108203;28;20431;-75
2022/03/20 01:45:42;;;;;;;24.67;14.35;;;;;;;1.84;37.39;102853.72;5107317;28;20119;-69
2022/03/20 01:48:09;;;;;;;29.98;15.45;;;;;;;1.82;37.16;102856.31;5106963;28;20679;-73
2022/03/20 01:50:38;;;;;;;33.95;16.80;;;;;;;1.83;37.28;102857.19;5108799;28;20464;-73
2022/03/20 01:53:07;;;;;;;33.70;16.77;;;;;;;1.78;37.26;102857.16;5104622;28;20059;-70
2022/03/20 01:55:35;;;;;;;32.78;17.02;;;;;;;1.74;37.25;102865.81;5107483;28;20497;-72
2022/03/20 01:58:02;;;;;;;36.95;17.60;;;;;;;1.71;37.50;102860.56;5098656;28;20044;-72
2022/03/20 02:00:31;;;;;;;32.25;15.77;;;;;;;1.68;37.46;102861.44;5096045;28;20042;-71
2022/03/20 02:02:59;;;;;;;35.58;20.33;;;;;;;1.66;37.45;102857.97;5098909;28;20112;-70
2022/03/20 02:05:26;;;;;;;37.30;19.42;;;;;;;1.57;37.21;102860.50;5099659;28;20090;-69
2022/03/20 02:07:55;;;;;;;40.95;21.33;;;;;;;1.47;37.87;102853.47;5096120;28;20039;-70
2022/03/20 02:10:22;;;;;;;42.78;19.13;;;;;;;1.32;38.00;102864.66;5086944;28;20237;-70
2022/03/20 02:12:49;;;;;;;41.65;20.33;;;;;;;1.23;37.70;102864.59;5087797;28;20476;-72
2022/03/20 02:15:16;;;;;;;40.05;19.20;;;;;;;1.12;37.91;102869.69;5094602;28;20590;-68
2022/03/20 02:17:44;;;;;;;45.67;18.67;;;;;;;1.05;38.06;102866.16;5095653;28;20540;-68
2022/03/20 02:20:12;;;;;;;36.92;20.17;;;;;;;0.98;38.31;102868.69;5094542;28;20491;-68
2022/03/20 02:22:43;;;;;;;34.80;20.02;;;;;;;0.91;38.30;102866.03;5094794;28;20500;-69
2022/03/20 02:25:11;;;;;;;43.53;17.70;;;;;;;0.83;38.68;102865.09;5097134;28;20044;-70
2022/03/20 02:27:40;;;;;;;40.42;18.40;;;;;;;0.80;38.14;102859.84;5095920;28;20525;-67
2022/03/20 02:30:13;;;;;;;40.65;18.88;;;;;;;0.79;38.32;102865.03;5094887;28;20090;-73
2022/03/20 02:32:42;;;;;;;41.95;19.65;;;;;;;0.71;38.43;102865.81;5092814;28;20051;-73
2022/03/20 02:35:15;;;;;;;40.97;21.58;;;;;;;0.64;38.42;102866.63;5096824;28;20051;-72
2022/03/20 02:37:48;;;;;;;46.67;25.50;;;;;;;0.59;38.67;102870.03;5095324;28;20055;-68
2022/03/20 02:40:17;;;;;;;45.05;22.88;;;;;;;0.51;38.89;102869.94;5094366;28;20066;-69
2022/03/20 02:42:46;;;;;;;50.03;22.48;;;;;;;0.42;38.91;102862.06;5095505;28;20043;-65
2022/03/20 02:45:15;;;;;;;49.80;22.90;;;;;;;0.31;38.89;102859.31;5094862;28;20046;-66
2022/03/20 02:47:43;;;;;;;48.40;20.05;;;;;;;0.24;38.81;102862.69;5095591;28;20652;-67
2022/03/20 02:50:12;;;;;;;41.58;22.23;;;;;;;0.17;39.07;102862.59;5094213;28;20044;-64
2022/03/20 02:52:50;;;;;;;39.53;18.30;;;;;;;0.14;39.28;102870.34;5095497;28;20039;-68
2022/03/20 02:55:20;;;;;;;36.88;18.80;;;;;;;0.14;38.99;102869.50;5095039;28;20044;-68
2022/03/20 02:57:48;;;;;;;37.00;18.05;;;;;;;0.12;39.16;102869.47;5097583;28;20039;-65
2022/03/20 03:00:17;;;;;;;34.47;18.27;;;;;;;0.10;38.90;102865.13;5095542;28;20475;-67
2022/03/20 03:02:45;;;;;;;38.38;21.58;;;;;;;0.05;39.06;102865.03;5095087;28;20070;-67
2022/03/20 03:05:14;;;;;;;43.88;20.60;;;;;;;-0.01;39.24;102867.56;5094140;28;20054;-67
2022/03/20 03:13:14;;;;;;;43.67;18.58;;;;;;;-0.14;39.02;102863.06;5095850;28;20128;-67
2022/03/20 03:15:41;;;;;;;30.35;16.95;;;;;;;-0.22;39.33;102858.63;5093396;28;20055;-70
2022/03/20 03:18:10;;;;;;;31.98;15.63;;;;;;;-0.22;39.11;102853.44;5095077;28;20059;-67
2022/03/20 03:20:38;;;;;;;35.75;17.15;;;;;;;-0.30;39.07;102856.78;5093295;28;20531;-67
2022/03/20 03:23:05;;;;;;;36.33;18.02;;;;;;;-0.36;39.49;102860.16;5095605;28;20044;-68
2022/03/20 03:25:36;;;;;;;38.53;18.27;;;;;;;-0.42;39.41;102854.84;5095340;28;20053;-67
2022/03/20 03:28:05;;;;;;;32.75;17.33;;;;;;;-0.47;39.38;102862.59;5094489;28;20610;-67
2022/03/20 03:30:32;;;;;;;29.15;17.90;;;;;;;-0.49;39.42;102863.41;5094281;28;20477;-67
2022/03/20 03:32:59;;;;;;;35.72;19.00;;;;;;;-0.53;39.75;102862.47;5092676;28;20048;-71
2022/03/20 03:35:47;;;;;;;38.58;18.63;;;;;;;-0.54;39.75;102859.84;5097304;28;20043;-73
2022/03/20 03:38:16;;;;;;;32.65;18.27;;;;;;;-0.55;39.56;102858.13;5095468;28;20486;-73
2022/03/20 03:40:46;;;;;;;39.30;19.73;;;;;;;-0.60;39.91;102860.63;5092178;28;20607;-69
2022/03/20 03:43:16;;;;;;;35.63;17.15;;;;;;;-0.63;39.99;102866.66;5094920;28;20460;-73
2022/03/20 03:45:44;;;;;;;36.88;17.38;;;;;;;-0.65;40.02;102870.97;5094774;28;20441;-68
2022/03/20 03:48:12;;;;;;;33.30;17.42;;;;;;;-0.70;39.91;102869.13;5095291;28;20051;-72
2022/03/20 03:50:41;;;;;;;34.50;18.67;;;;;;;-0.71;40.27;102872.59;5092958;28;20054;-71
2022/03/20 03:53:09;;;;;;;39.40;19.13;;;;;;;-0.70;40.20;102874.31;5093670;28;20055;-72
2022/03/20 03:55:37;;;;;;;40.72;19.83;;;;;;;-0.68;40.06;102878.69;5092992;28;20403;-68
2022/03/20 03:58:05;;;;;;;39.70;22.10;;;;;;;-0.68;40.07;102873.50;5094313;28;20055;-71
2022/03/20 04:00:33;;;;;;;48.90;20.65;;;;;;;-0.69;40.19;102879.53;5093538;28;20047;-67
2022/03/20 04:03:00;;;;;;;44.20;22.90;;;;;;;-0.72;40.50;102879.50;5093526;28;20040;-68
2022/03/20 04:05:28;;;;;;;46.38;22.42;;;;;;;-0.73;40.64;102877.75;5093843;28;20499;-70
2022/03/20 04:07:56;;;;;;;56.33;22.17;;;;;;;-0.79;40.64;102883.72;5095243;28;20618;-69
2022/03/20 04:10:23;;;;;;;48.53;22.08;;;;;;;-0.83;40.63;102883.63;5093252;28;20050;-68
2022/03/20 04:12:51;;;;;;;50.42;25.65;;;;;;;-0.87;40.92;102887.00;5094713;28;20054;-70
2022/03/20 04:15:24;;;;;;;48.80;26.23;;;;;;;-0.91;41.25;102874.84;5092598;28;20040;-69
2022/03/20 04:17:51;;;;;;;53.75;24.88;;;;;;;-0.92;41.13;102875.69;5065189;28;20109;-74
2022/03/20 04:20:18;;;;;;;61.47;25.42;;;;;;;-0.94;41.32;102875.66;5093475;28;20054;-66
2022/03/20 04:23:42;;;;;;;47.58;26.13;;;;;;;-0.95;41.23;102884.28;5093827;28;20658;-66
2022/03/20 04:25:34;;;;;;;53.60;28.17;;;;;;;-0.93;40.96;102887.78;5094393;28;20364;-66
2022/03/20 04:28:01;;;;;;;53.00;28.60;;;;;;;-0.96;41.10;102883.41;5092647;28;20046;-69
2022/03/20 04:30:33;;;;;;;53.30;27.52;;;;;;;-0.96;41.36;102891.19;5091551;28;20054;-69
2022/03/20 04:33:01;;;;;;;51.22;27.45;;;;;;;-0.98;41.27;102887.69;5093185;28;20047;-73
2022/03/20 04:35:28;;;;;;;58.63;25.27;;;;;;;-0.98;41.28;102895.47;5093520;28;20040;-67
2022/03/20 04:37:57;;;;;;;52.30;23.83;;;;;;;-0.97;41.62;102894.63;5092679;28;20042;-65
2022/03/20 04:40:24;;;;;;;56.70;27.10;;;;;;;-0.93;41.61;102889.50;5097945;28;20046;-70
2022/03/20 04:42:51;;;;;;;53.63;27.67;;;;;;;-0.93;41.51;102889.50;5100161;28;20634;-68
2022/03/20 04:45:18;;;;;;;57.15;26.42;;;;;;;-0.93;41.76;102894.69;5096657;28;20054;-66
2022/03/20 04:58:47;;;;;;;69.57;30.17;;;;;;;-0.83;41.77;102901.78;5054540;28;20064;-66
2022/03/20 05:01:14;;;;;;;56.20;26.92;;;;;;;-0.77;42.01;102894.13;5052655;28;20140;-66
2022/03/20 05:03:43;;;;;;;63.70;29.40;;;;;;;-0.73;42.01;102901.09;5053350;28;20047;-69
2022/03/20 05:06:10;;;;;;;60.10;28.95;;;;;;;-0.65;42.20;102904.72;5050153;28;20060;-66
2022/03/20 05:08:37;;;;;;;67.13;30.95;;;;;;;-0.63;42.20;102907.31;5045461;28;20106;-65
2022/03/20 05:13:48;;;;;;;50.20;24.55;;;;;;;-0.70;41.84;102916.72;5009127;28;20513;-67
2022/03/20 05:16:15;;;;;;;55.33;25.70;;;;;;;-0.71;42.01;102914.97;5010376;28;20053;-65
2022/03/20 05:18:44;;;;;;;47.97;24.92;;;;;;;-0.71;42.18;102908.91;5009883;28;20058;-72
2022/03/20 05:21:11;;;;;;;53.63;25.75;;;;;;;-0.70;41.82;102921.03;5008661;28;20057;-68
2022/03/20 05:23:39;;;;;;;45.30;24.83;;;;;;;-0.66;42.07;102917.66;5005546;28;20460;-64
2022/03/20 05:26:06;;;;;;;51.42;23.50;;;;;;;-0.65;41.95;102914.19;5009274;28;20055;-67
2022/03/20 05:28:33;;;;;;;56.50;28.27;;;;;;;-0.61;42.37;102922.06;5046838;28;20132;-65
2022/03/20 05:31:00;;;;;;;49.45;26.85;;;;;;;-0.51;42.14;102924.81;5048108;28;20075;-64
2022/03/20 05:33:29;;;;;;;50.10;24.33;;;;;;;-0.44;42.40;102931.84;5051101;28;20403;-69
2022/03/20 05:35:59;;;;;;;46.55;23.92;;;;;;;-0.29;42.00;102933.81;5050441;28;20122;-63
2022/03/20 05:38:27;;;;;;;35.53;20.90;;;;;;;-0.15;42.29;102928.84;5051568;28;20191;-68
2022/03/20 05:41:43;;;;;;;37.78;19.65;;;;;;;0.01;41.96;102933.41;5051520;28;20041;-69
2022/03/20 05:43:41;;;;;;;62.15;27.58;;;;;;;0.14;41.80;102932.72;5052584;28;20041;-65
2022/03/20 05:46:09;;;;;;;48.70;23.85;;;;;;;0.25;41.59;102943.28;5052021;28;20152;-64
2022/03/20 05:48:37;;;;;;;61.15;27.10;;;;;;;0.34;41.68;102948.63;5050520;28;20045;-66
2022/03/20 05:51:06;;;;;;;52.83;27.77;;;;;;;0.43;41.92;102942.66;5072975;28;20108;-67
2022/03/20 05:53:33;;;;;;;52.53;26.88;;;;;;;0.54;41.64;102946.28;5095971;28;20039;-65
2022/03/20 05:58:45;;;;;;;42.75;26.05;;;;;;;0.78;41.58;102947.41;5095154;28;20050;-66
2022/03/20 06:01:12;;;;;;;40.65;21.20;;;;;;;0.91;41.39;102949.28;5092671;28;20562;-71
2022/03/20 06:03:39;;;;;;;36.85;21.63;;;;;;;1.03;41.38;102950.31;5085463;28;20517;-69
2022/03/20 06:06:08;;;;;;;42.13;21.88;;;;;;;1.17;41.23;102953.94;5084923;28;20052;-66
2022/03/20 06:08:36;;;;;;;43.80;21.83;;;;;;;1.32;41.08;102945.38;5084697;28;20504;-68
2022/03/20 06:11:03;;;;;;;43.60;20.45;;;;;;;1.49;41.61;102953.34;5085026;28;20036;-69
2022/03/20 06:13:31;;;;;;;37.88;22.17;;;;;;;1.65;41.34;102954.34;5083903;28;20048;-66
2022/03/20 06:15:58;;;;;;;38.15;21.40;;;;;;;1.86;41.15;102948.44;5084336;28;20051;-66
2022/03/20 06:18:25;;;;;;;43.83;20.98;;;;;;;2.04;40.99;102945.94;5097368;28;20109;-66
2022/03/20 06:20:53;;;;;;;40.28;18.17;;;;;;;2.23;40.50;102953.84;5092071;28;20055;-66
2022/03/20 06:23:22;;;;;;;37.50;20.27;;;;;;;2.39;40.44;102958.28;5096019;28;20138;-66
2022/03/20 06:25:51;;;;;;;40.90;20.63;;;;;;;2.56;40.63;102954.91;5095591;28;20044;-69
2022/03/20 06:28:18;;;;;;;38.53;17.20;;;;;;;2.78;40.18;102953.25;5092612;28;20123;-69
2022/03/20 06:30:45;;;;;;;37.15;20.33;;;;;;;2.95;39.84;102963.75;5092460;28;20036;-68
2022/03/20 06:33:12;;;;;;;33.17;21.23;;;;;;;3.12;39.71;102955.97;5094857;28;20058;-69
2022/03/20 06:35:40;;;;;;;31.95;18.40;;;;;;;3.31;39.62;102960.31;5091285;28;20159;-70
2022/03/20 06:38:07;;;;;;;37.50;20.20;;;;;;;3.49;39.55;102963.84;5093017;28;20044;-67
2022/03/20 06:40:36;;;;;;;32.70;16.38;;;;;;;3.68;39.38;102969.94;5094044;28;20473;-71
2022/03/20 06:43:03;;;;;;;35.38;20.73;;;;;;;3.84;39.00;102966.44;5091920;28;20051;-68
2022/03/20 06:45:30;;;;;;;36.00;18.38;;;;;;;4.01;39.09;102967.28;5092336;28;20058;-68
2022/03/20 06:47:57;;;;;;;30.70;19.73;;;;;;;4.18;38.87;102971.63;5093030;28;20578;-69
2022/03/20 06:50:24;;;;;;;36.08;19.25;;;;;;;4.31;38.54;102970.72;5093266;28;20052;-70
2022/03/20 06:52:51;;;;;;;28.23;16.00;;;;;;;4.52;38.44;102982.88;5091782;28;20043;-69
2022/03/20 06:55:18;;;;;;;32.42;18.13;;;;;;;4.67;38.18;102981.09;5089628;28;20047;-67
2022/03/20 06:57:47;;;;;;;37.42;19.17;;;;;;;4.84;37.94;102984.47;5091121;28;20042;-67
2022/03/20 07:00:17;;;;;;;34.05;20.52;;;;;;;4.98;37.61;102979.19;5091017;28;20345;-72
2022/03/20 07:02:44;;;;;;;23.95;14.80;;;;;;;5.14;37.20;102988.69;5091257;28;20125;-70
2022/03/20 07:05:12;;;;;;;25.95;16.75;;;;;;;5.27;37.00;102976.38;5091083;28;20628;-66
2022/03/20 07:07:40;;;;;;;31.65;18.80;;;;;;;5.39;36.82;102972.81;5094050;28;20432;-70
2022/03/20 07:10:08;;;;;;;29.02;19.35;;;;;;;5.53;36.62;102972.72;5091079;28;20047;-75
2022/03/20 07:12:35;;;;;;;29.92;18.80;;;;;;;5.64;36.25;102972.63;5090249;28;20047;-70
2022/03/20 07:15:04;;;;;;;31.70;17.15;;;;;;;5.77;36.36;102974.25;5093115;28;20047;-70
2022/03/20 07:17:36;;;;;;;30.00;18.10;;;;;;;5.85;36.13;102969.84;5091694;28;20614;-71
2022/03/20 07:20:09;;;;;;;31.60;16.98;;;;;;;5.99;35.86;102959.22;5091820;28;20503;-70
2022/03/20 07:22:36;;;;;;;32.53;18.10;;;;;;;6.12;35.72;102962.59;5091943;28;20169;-71
2022/03/20 07:30:31;;;;;;;29.08;19.60;;;;;;;6.53;34.82;102958.63;5080048;28;20050;-73
2022/03/20 07:32:58;;;;;;;26.42;16.02;;;;;;;6.65;34.56;102955.00;5084435;28;20040;-74
2022/03/20 07:35:26;;;;;;;29.33;15.70;;;;;;;6.80;34.40;102959.19;5093487;28;20558;-68
2022/03/20 07:37:53;;;;;;;26.20;15.73;;;;;;;6.95;34.20;102958.09;5091523;28;20116;-74
2022/03/20 07:40:21;;;;;;;26.30;19.88;;;;;;;7.05;33.88;102965.81;5087414;28;20508;-74
2022/03/20 07:42:48;;;;;;;30.77;17.02;;;;;;;7.18;33.75;102963.03;5092191;28;20579;-69
2022/03/20 07:45:15;;;;;;;26.35;16.10;;;;;;;7.33;33.42;102961.91;5090003;28;20050;-75
2022/03/20 07:47:43;;;;;;;28.75;17.33;;;;;;;7.45;33.37;102965.25;5082251;28;20127;-77
2022/03/20 07:50:11;;;;;;;27.25;18.15;;;;;;;7.59;33.06;102958.88;5084908;28;20052;-71
2022/03/20 07:52:38;;;;;;;29.08;16.95;;;;;;;7.73;32.79;102958.66;5084694;28;20044;-77
2022/03/20 07:55:07;;;;;;;25.00;18.50;;;;;;;7.85;32.17;102954.06;5081790;28;20055;-75
2022/03/20 07:57:41;;;;;;;38.83;24.77;;;;;;;7.98;31.84;102952.06;5096160;28;20054;-76
2022/03/20 08:00:10;;;;;;;30.15;17.88;;;;;;;8.10;31.58;102956.22;5106784;28;20165;-75
2022/03/20 08:02:38;;;;;;;27.13;17.20;;;;;;;8.19;31.16;102950.81;5103073;28;20053;-75
2022/03/20 08:05:07;;;;;;;25.13;16.27;;;;;;;8.34;31.03;102947.00;5101339;28;20265;-73
2022/03/20 08:07:36;;;;;;;26.02;15.18;;;;;;;8.49;30.94;102945.84;5105864;28;20588;-75
2022/03/20 08:10:06;;;;;;;27.40;17.58;;;;;;;8.65;30.47;102941.13;5103679;28;20135;-75
2022/03/20 08:12:33;;;;;;;23.75;14.65;;;;;;;8.79;30.39;102949.59;5101704;28;20051;-72
2022/03/20 08:15:00;;;;;;;20.65;14.38;;;;;;;8.95;30.11;102957.19;5101202;28;20084;-76
2022/03/20 08:17:29;;;;;;;25.15;15.73;;;;;;;9.10;29.83;102951.53;5098574;28;20046;-78
2022/03/20 08:19:56;;;;;;;22.60;12.15;;;;;;;9.22;29.64;102950.41;5100859;28;20729;-74
2022/03/20 08:22:26;;;;;;;21.73;13.45;;;;;;;9.30;29.16;102953.69;5106054;28;20046;-79
2022/03/20 08:24:54;;;;;;;22.35;15.35;;;;;;;9.36;28.58;102943.03;5112307;28;20044;-79
2022/03/20 08:27:21;;;;;;;15.05;10.02;;;;;;;9.46;28.44;102950.72;5112774;28;20067;-78
2022/03/20 08:29:48;;;;;;;22.67;12.57;;;;;;;9.56;28.06;102947.81;5114563;28;20047;-77
2022/03/20 08:32:16;;;;;;;20.25;11.73;;;;;;;9.64;28.02;102952.88;5102741;28;20051;-75
2022/03/20 08:34:43;;;;;;;18.70;12.07;;;;;;;9.87;28.12;102944.38;5108115;28;20048;-75
2022/03/20 08:37:10;;;;;;;17.30;11.52;;;;;;;10.01;27.62;102946.66;5107214;28;20090;-79
2022/03/20 08:39:39;;;;;;;18.13;12.43;;;;;;;10.10;27.00;102941.13;5106663;28;20741;-80
2022/03/20 08:42:07;;;;;;;18.92;11.52;;;;;;;10.19;26.63;102944.41;5104234;28;20093;-77
2022/03/20 08:44:34;;;;;;;17.00;11.27;;;;;;;10.26;26.68;102941.56;5107344;28;20047;-78
2022/03/20 08:47:01;;;;;;;19.20;11.10;;;;;;;10.36;26.17;102936.03;5114657;28;20604;-77
2022/03/20 08:49:28;;;;;;;15.98;11.38;;;;;;;10.44;26.01;102939.31;5113480;28;20031;-76
2022/03/20 08:51:55;;;;;;;17.50;11.13;;;;;;;10.52;25.68;102943.47;5113287;28;20111;-75
2022/03/20 08:54:23;;;;;;;18.75;11.00;;;;;;;10.60;25.56;102942.38;5098047;28;20081;-74
2022/03/20 08:56:51;;;;;;;18.90;12.75;;;;;;;10.59;25.37;102945.91;5121332;28;20082;-76
2022/03/20 08:59:19;;;;;;;17.58;10.32;;;;;;;10.66;24.98;102947.47;5119140;28;20535;-82
2022/03/20 09:01:46;;;;;;;16.40;10.32;;;;;;;10.64;25.21;102946.66;5114450;28;20099;-77
2022/03/20 09:04:14;;;;;;;18.60;11.48;;;;;;;10.75;24.95;102948.97;5116110;28;20631;-80
2022/03/20 09:06:44;;;;;;;13.70;7.43;;;;;;;10.86;25.18;102946.91;5119374;28;20588;-78
2022/03/20 09:09:13;;;;;;;15.80;9.88;;;;;;;10.90;25.09;102941.44;5115790;28;20039;-79
2022/03/20 09:11:41;;;;;;;28.17;12.18;;;;;;;11.07;24.83;102932.13;5114827;28;20589;-77
2022/03/20 09:14:11;;;;;;;20.02;10.77;;;;;;;11.23;24.40;102941.28;5112629;28;20052;-78
2022/03/20 09:19:26;;;;;;;15.05;10.93;;;;;;;11.44;23.49;102939.72;5091759;28;20047;-77
2022/03/20 09:21:53;;;;;;;12.68;7.63;;;;;;;11.46;23.08;102931.75;5090545;28;20043;-77
2022/03/20 09:24:22;;;;;;;10.27;7.80;;;;;;;11.45;22.92;102936.19;5096301;28;20122;-81
2022/03/20 09:26:50;;;;;;;12.75;7.45;;;;;;;11.56;23.01;102940.22;5102506;28;20123;-74
2022/03/20 09:29:23;;;;;;;15.15;10.20;;;;;;;11.57;22.19;102929.59;5096819;28;20169;-81
2022/03/20 09:31:50;;;;;;;13.80;8.95;;;;;;;11.64;22.38;102936.41;5093983;28;20479;-75
2022/03/20 09:34:17;;;;;;;13.43;10.38;;;;;;;11.75;22.07;102940.50;5094615;28;20130;-78
2022/03/20 09:36:46;;;;;;;14.85;10.57;;;;;;;11.91;22.14;102928.47;5092762;28;20075;-77
2022/03/20 09:39:13;;;;;;;12.05;8.23;;;;;;;11.90;21.88;102932.03;5095433;28;20521;-78
2022/03/20 09:41:42;;;;;;;12.35;8.07;;;;;;;11.87;21.58;102926.81;5095212;28;20102;-73
2022/03/20 09:44:10;;;;;;;18.50;10.60;;;;;;;11.85;21.69;102929.53;5093612;28;20240;-75
2022/03/20 09:46:53;;;;;;;17.63;11.27;;;;;;;11.98;21.65;102919.38;5103661;28;20130;-82
2022/03/20 09:49:25;;;;;;;14.32;7.75;;;;;;;12.09;21.61;102926.94;5097325;28;20366;-79
2022/03/20 09:51:56;;;;;;;12.95;8.77;;;;;;;12.18;20.94;102925.75;5102383;28;20050;-79
2022/03/20 09:54:23;;;;;;;12.52;7.68;;;;;;;12.18;21.31;102916.00;5099766;28;20655;-72
2022/03/20 09:56:53;;;;;;;11.35;7.60;;;;;;;12.18;20.93;102918.66;5094874;28;20144;-74
2022/03/20 09:59:20;;;;;;;19.23;9.55;;;;;;;12.05;20.27;102914.75;5096276;28;20040;-77
2022/03/20 10:01:53;;;;;;;8.00;5.80;;;;;;;12.02;20.31;102909.53;5105686;28;20067;-82
2022/03/20 10:04:21;;;;;;;8.63;6.13;;;;;;;11.94;20.51;102907.19;5109665;28;20031;-80
2022/03/20 10:06:48;;;;;;;13.70;8.30;;;;;;;11.97;20.73;102916.78;5109598;28;20048;-81
2022/03/20 10:09:16;;;;;;;12.07;8.13;;;;;;;11.97;20.68;102920.28;5101114;27;20126;-72
2022/03/20 10:11:51;;;;;;;12.90;7.53;;;;;;;12.10;20.98;102915.44;5093902;28;20047;-81
2022/03/20 10:14:20;;;;;;;12.10;8.30;;;;;;;12.26;20.94;102901.63;5094523;28;20051;-81
2022/03/20 10:16:53;;;;;;;14.93;9.63;;;;;;;12.33;20.69;102906.63;5093921;28;20067;-75
2022/03/20 10:19:33;;;;;;;13.60;8.35;;;;;;;12.31;20.73;102897.00;5090322;28;20044;-80
2022/03/20 10:22:05;;;;;;;14.27;8.55;;;;;;;12.28;20.90;102900.66;5088753;28;20052;-78
2022/03/20 10:24:34;;;;;;;11.38;7.18;;;;;;;12.36;20.87;102914.47;5092525;28;20051;-77
2022/03/20 10:27:07;;;;;;;15.30;9.23;;;;;;;12.24;20.67;102902.56;5095309;28;20075;-81
2022/03/20 10:29:35;;;;;;;14.07;8.65;;;;;;;12.30;20.38;102912.06;5093492;28;20764;-76
2022/03/20 10:32:09;;;;;;;10.70;7.53;;;;;;;12.34;20.42;102903.06;5100272;28;20534;-79
2022/03/20 10:34:49;;;;;;;14.77;8.38;;;;;;;12.37;20.53;102891.47;5107637;28;20264;-79
2022/03/20 10:37:18;;;;;;;15.20;8.65;;;;;;;12.47;20.57;102905.25;5088159;28;20056;-77
2022/03/20 10:40:34;;;;;;;15.93;7.43;;;;;;;12.43;20.49;102889.47;5095291;28;20412;-76
2022/03/20 10:43:32;;;;;;;11.07;8.63;;;;;;;12.52;20.41;102872.34;5083662;28;20127;-82
2022/03/20 10:49:09;;;;;;;16.10;7.53;;;;;;;12.62;20.27;102880.78;5081061;28;20044;-81
2022/03/20 10:51:45;;;;;;;10.95;6.70;;;;;;;12.56;19.83;102884.53;5087560;28;20048;-80
2022/03/20 10:54:25;;;;;;;12.23;8.05;;;;;;;12.56;19.95;102883.69;5101015;28;20047;-76
2022/03/20 10:57:06;;;;;;;13.00;7.80;;;;;;;12.71;20.02;102875.16;5099027;28;20053;-81
2022/03/20 10:59:35;;;;;;;10.90;8.25;;;;;;;12.80;19.79;102881.84;5099341;28;20066;-79
2022/03/20 11:02:24;;;;;;;13.38;9.23;;;;;;;12.88;20.09;102878.91;5094403;28;20044;-83
2022/03/20 11:08:39;;;;;;;11.52;7.80;;;;;;;12.93;19.77;102872.50;5036285;28;20053;-80
2022/03/20 11:17:40;;;;;;;10.98;6.80;;;;;;;13.10;19.58;102857.66;4872763;29;20108;-78
2022/03/20 11:23:38;;;;;;;14.35;8.95;;;;;;;12.82;19.75;102851.69;4874567;29;20052;-83
2022/03/20 11:26:20;;;;;;;12.45;9.98;;;;;;;12.87;20.02;102843.53;4882092;29;20116;-84
2022/03/20 11:29:01;;;;;;;12.75;9.43;;;;;;;12.99;20.00;102851.00;4848298;29;20045;-78
2022/03/20 11:31:34;;;;;;;9.57;6.35;;;;;;;13.09;19.97;102851.50;4869446;29;20055;-82
2022/03/20 11:44:20;;;;;;;14.73;9.77;;;;;;;13.32;20.13;102817.84;717502;26;20487;-77
2022/03/20 11:47:37;;;;;;;13.38;9.27;;;;;;;13.32;20.23;102815.19;5035154;28;20049;-79
2022/03/20 12:00:18;;;;;;;12.77;7.88;;;;;;;13.17;19.60;102798.94;4897341;29;20123;-81
2022/03/20 12:05:59;;;;;;;16.23;9.43;;;;;;;13.30;19.46;102798.44;4925155;29;20052;-81
2022/03/20 12:37:39;;;;;;;13.80;8.23;;;;;;;13.47;19.41;102750.81;4812577;29;20065;-76
2022/03/20 12:40:09;;;;;;;10.98;7.28;;;;;;;13.51;19.71;102748.88;4809592;29;20119;-78
2022/03/20 12:42:39;;;;;;;10.88;6.82;;;;;;;13.41;19.51;102751.06;4870833;29;20200;-76
2022/03/20 12:45:08;;;;;;;12.32;7.88;;;;;;;13.36;19.58;102748.63;4929245;28;20057;-75
2022/03/20 12:47:36;;;;;;;13.35;8.82;;;;;;;13.36;19.63;102738.00;4970410;28;20081;-76
2022/03/20 12:50:12;;;;;;;11.30;8.35;;;;;;;13.44;19.67;102735.00;4980311;28;20051;-79
2022/03/20 12:52:42;;;;;;;11.55;8.40;;;;;;;13.45;19.53;102735.88;4987752;28;20070;-79
2022/03/20 12:57:54;;;;;;;11.10;8.02;;;;;;;13.45;19.52;102735.88;4997493;28;20054;-82
2022/03/20 13:00:36;;;;;;;13.30;7.78;;;;;;;13.37;19.44;102728.25;4997914;28;20046;-86
2022/03/20 13:03:07;;;;;;;11.57;7.82;;;;;;;13.40;19.59;102733.44;4987230;28;20076;-78
2022/03/20 13:05:39;;;;;;;8.93;6.85;;;;;;;13.51;19.67;102731.16;4981864;28;20046;-85
2022/03/20 13:08:10;;;;;;;12.15;7.53;;;;;;;13.63;19.75;102726.19;4986324;28;20434;-80